Time;durP1;ratioP1;P1;durP2;ratioP2;P2;SDS_P1;SDS_P2;PMS_P1;PMS_P2;Temp;Humidity;BMP_temperature;BMP_pressure;BME280_temperature;BME280_humidity;BME280_pressure;Samples;Min_cycle;Max_cycle;Signal;HPM_P1;HPM_P2
2021/04/15 00:01:10;;;;;;;3.67;2.30;;;6.80;29.40;;;;;;10585233;28;20226;-78
2021/04/15 00:06:16;;;;;;;2.37;2.17;;;6.80;29.70;;;;;;10588130;27;20242;-79
2021/04/15 00:11:21;;;;;;;4.83;2.50;;;6.70;29.40;;;;;;10584603;27;20260;-79
2021/04/15 00:16:25;;;;;;;2.43;2.23;;;6.60;29.40;;;;;;10580545;28;20226;-79
2021/04/15 00:21:28;;;;;;;2.20;2.00;;;6.60;29.40;;;;;;10584902;28;20226;-79
2021/04/15 00:26:30;;;;;;;2.20;2.00;;;6.50;29.30;;;;;;10584528;27;20223;-79
2021/04/15 00:31:34;;;;;;;2.60;2.40;;;6.40;29.40;;;;;;10580664;28;20249;-79
2021/04/15 00:36:36;;;;;;;3.20;2.40;;;6.30;29.40;;;;;;10584929;28;20631;-79
2021/04/15 00:41:38;;;;;;;2.93;2.63;;;6.20;29.40;;;;;;10585262;27;20255;-79
2021/04/15 00:46:57;;;;;;;3.00;2.67;;;6.20;29.50;;;;;;10582106;28;20260;-79
2021/04/15 00:52:02;;;;;;;2.90;2.70;;;6.00;29.80;;;;;;10581089;28;20241;-79
2021/04/15 00:57:09;;;;;;;2.10;2.00;;;6.00;29.70;;;;;;10543959;22;20300;-74
2021/04/15 01:02:16;;;;;;;1.93;1.83;;;5.90;29.70;;;;;;10531940;28;20251;-74
2021/04/15 01:12:46;;;;;;;2.13;2.03;;;5.80;30.00;;;;;;10369547;28;20317;-72
2021/04/15 01:17:55;;;;;;;2.60;2.27;;;5.80;30.50;;;;;;10362112;28;20722;-71
2021/04/15 01:23:08;;;;;;;2.47;2.20;;;5.80;29.90;;;;;;10323005;28;20323;-72
2021/04/15 01:28:23;;;;;;;2.60;2.40;;;5.80;30.00;;;;;;10321737;28;20227;-71
2021/04/15 01:33:32;;;;;;;2.50;2.30;;;5.70;30.00;;;;;;10318756;28;20682;-71
2021/04/15 01:38:40;;;;;;;2.50;2.20;;;5.70;29.80;;;;;;10322361;28;20261;-72
2021/04/15 01:43:48;;;;;;;2.47;2.10;;;5.70;29.80;;;;;;10322049;28;20219;-71
2021/04/15 01:48:53;;;;;;;2.50;2.30;;;5.70;29.80;;;;;;10325857;28;20227;-72
2021/04/15 01:54:02;;;;;;;2.33;2.17;;;5.60;29.80;;;;;;10326624;28;20231;-72
2021/04/15 01:59:08;;;;;;;3.43;2.57;;;5.60;30.00;;;;;;10324643;28;20314;-72
2021/04/15 02:04:18;;;;;;;2.50;2.30;;;5.50;29.80;;;;;;10322920;28;20313;-71
2021/04/15 02:09:21;;;;;;;2.57;2.30;;;5.50;29.90;;;;;;10325301;28;20319;-71
2021/04/15 02:14:28;;;;;;;2.27;2.00;;;5.50;29.80;;;;;;10322523;28;20715;-71
2021/04/15 02:19:37;;;;;;;2.20;2.00;;;5.40;29.80;;;;;;10321558;28;20606;-71
2021/04/15 02:24:45;;;;;;;2.20;2.00;;;5.30;29.80;;;;;;10323015;28;20306;-71
2021/04/15 02:29:51;;;;;;;2.50;2.30;;;5.30;29.80;;;;;;10322442;28;20245;-72
2021/04/15 02:35:02;;;;;;;2.00;1.90;;;5.40;29.90;;;;;;10325426;28;20258;-72
2021/04/15 02:40:10;;;;;;;2.47;1.97;;;5.20;29.80;;;;;;10327011;28;20258;-72
2021/04/15 02:45:20;;;;;;;2.43;2.23;;;5.10;29.80;;;;;;10324623;28;20227;-71
2021/04/15 02:50:25;;;;;;;2.53;2.33;;;5.10;29.70;;;;;;10324655;28;20305;-71
2021/04/15 02:55:31;;;;;;;2.37;2.10;;;5.00;29.30;;;;;;10330153;28;20231;-72
2021/04/15 03:00:37;;;;;;;2.30;2.10;;;4.90;29.60;;;;;;10332601;28;20314;-72
2021/04/15 03:05:43;;;;;;;2.13;2.00;;;4.80;29.70;;;;;;10330071;28;20222;-71
2021/04/15 03:10:50;;;;;;;2.43;2.23;;;4.80;29.80;;;;;;10332098;28;20282;-72
2021/04/15 03:15:56;;;;;;;2.37;2.17;;;4.90;29.90;;;;;;10330980;28;20257;-72
2021/04/15 03:21:04;;;;;;;2.80;2.47;;;4.70;29.80;;;;;;10328912;28;20342;-72
2021/04/15 03:26:15;;;;;;;3.83;2.07;;;4.80;29.90;;;;;;10331229;28;20258;-71
2021/04/15 03:31:25;;;;;;;2.27;2.07;;;4.80;29.90;;;;;;10329396;28;20234;-72
2021/04/15 03:36:33;;;;;;;2.47;2.27;;;4.70;29.80;;;;;;10322351;28;20255;-72
2021/04/15 03:41:40;;;;;;;2.40;2.20;;;4.60;29.80;;;;;;10332245;28;20234;-71
2021/04/15 03:46:45;;;;;;;5.73;2.60;;;4.50;29.80;;;;;;10332039;28;20313;-72
2021/04/15 03:51:52;;;;;;;4.67;3.53;;;4.50;29.80;;;;;;10330441;28;20340;-72
2021/04/15 03:56:57;;;;;;;6.20;3.40;;;4.50;29.80;;;;;;10325185;28;20322;-71
2021/04/15 04:02:03;;;;;;;5.03;3.80;;;4.40;29.80;;;;;;10326620;28;20318;-71
2021/04/15 04:07:11;;;;;;;6.73;4.80;;;4.30;29.80;;;;;;10328693;28;20254;-71
2021/04/15 04:12:21;;;;;;;6.33;4.63;;;4.30;30.00;;;;;;10330849;28;20281;-71
2021/04/15 04:17:31;;;;;;;5.60;3.90;;;4.20;30.10;;;;;;10324066;28;20630;-71
2021/04/15 04:22:42;;;;;;;4.40;3.83;;;4.20;30.10;;;;;;10326603;28;20305;-71
2021/04/15 04:27:50;;;;;;;3.83;3.43;;;4.20;30.10;;;;;;10330256;28;20690;-72
2021/04/15 04:32:57;;;;;;;3.83;3.40;;;4.20;30.10;;;;;;10328431;28;20310;-72
2021/04/15 04:38:04;;;;;;;4.97;4.23;;;4.10;30.00;;;;;;10326143;28;20230;-72
2021/04/15 04:43:10;;;;;;;5.33;4.83;;;4.10;30.00;;;;;;10355125;28;20261;-71
2021/04/15 04:48:19;;;;;;;4.73;3.87;;;4.10;30.00;;;;;;10369161;28;20266;-71
2021/04/15 04:53:28;;;;;;;3.37;2.87;;;4.00;30.00;;;;;;10365564;28;20237;-71
2021/04/15 04:58:31;;;;;;;3.10;2.80;;;3.90;30.10;;;;;;10365083;28;20237;-72
2021/04/15 05:03:34;;;;;;;3.90;2.43;;;3.90;29.90;;;;;;10364744;28;20316;-72
2021/04/15 05:08:53;;;;;;;2.60;2.40;;;3.90;30.00;;;;;;10371202;28;20234;-71
2021/04/15 05:13:55;;;;;;;3.00;2.50;;;3.90;30.70;;;;;;10370339;28;20253;-71
2021/04/15 05:18:57;;;;;;;3.27;2.23;;;3.90;30.20;;;;;;10362551;28;20262;-71
2021/04/15 05:24:09;;;;;;;5.37;3.30;;;4.00;30.50;;;;;;10365021;28;20579;-71
2021/04/15 05:29:16;;;;;;;9.53;4.43;;;3.80;30.70;;;;;;10366857;28;20222;-71
2021/04/15 05:34:25;;;;;;;5.57;4.57;;;3.80;30.50;;;;;;10368298;28;20276;-71
2021/04/15 05:39:30;;;;;;;5.57;4.60;;;3.80;31.10;;;;;;10366744;28;20774;-71
2021/04/15 05:44:37;;;;;;;6.50;4.43;;;3.80;30.90;;;;;;10366916;28;20311;-71
2021/04/15 05:49:43;;;;;;;7.30;4.17;;;3.70;31.20;;;;;;10363976;28;20254;-72
2021/04/15 05:54:48;;;;;;;4.57;4.17;;;3.80;31.50;;;;;;10364867;28;20254;-72
2021/04/15 05:59:56;;;;;;;5.07;4.57;;;3.70;31.60;;;;;;10364954;28;20297;-72
2021/04/15 06:05:05;;;;;;;8.30;4.57;;;3.80;31.90;;;;;;10365348;28;20737;-72
2021/04/15 06:10:10;;;;;;;5.27;4.47;;;3.90;32.00;;;;;;10355042;28;20317;-72
2021/04/15 06:15:16;;;;;;;5.10;4.57;;;4.00;32.20;;;;;;10362258;28;20326;-72
2021/04/15 06:20:36;;;;;;;4.13;3.73;;;4.10;32.20;;;;;;10363410;28;20232;-72
2021/04/15 06:25:43;;;;;;;4.53;4.13;;;4.10;32.30;;;;;;10365755;28;20690;-72
2021/04/15 06:30:55;;;;;;;5.23;4.73;;;4.20;32.40;;;;;;10367536;28;20285;-72
2021/04/15 06:36:00;;;;;;;5.17;4.67;;;4.30;32.70;;;;;;10355765;28;20654;-72
2021/04/15 06:41:26;;;;;;;6.20;4.80;;;4.40;32.70;;;;;;10370790;28;20322;-70
2021/04/15 06:47:04;;;;;;;5.37;4.87;;;4.60;33.80;;;;;;10367634;28;20282;-71
2021/04/15 06:52:16;;;;;;;5.83;5.13;;;4.50;33.70;;;;;;10342224;28;20230;-71
2021/04/15 06:57:46;;;;;;;6.03;5.50;;;4.60;33.20;;;;;;10372506;28;20321;-71
2021/04/15 07:03:12;;;;;;;7.00;5.43;;;4.70;33.60;;;;;;10371355;28;20269;-71
2021/04/15 07:08:36;;;;;;;5.83;5.33;;;4.90;34.20;;;;;;10372121;28;20325;-72
2021/04/15 07:14:05;;;;;;;5.50;5.00;;;4.90;33.90;;;;;;10507727;22;20259;-77
2021/04/15 07:19:51;;;;;;;6.23;5.13;;;5.10;34.30;;;;;;10535975;27;20298;-76
2021/04/15 07:25:03;;;;;;;7.87;5.40;;;5.20;34.20;;;;;;10534885;28;20306;-76
2021/04/15 07:30:51;;;;;;;5.57;4.87;;;5.40;34.20;;;;;;10535278;27;20219;-75
2021/04/15 07:36:35;;;;;;;6.10;5.50;;;5.50;34.40;;;;;;10496828;28;20259;-76
2021/04/15 07:41:49;;;;;;;5.63;5.07;;;5.70;34.10;;;;;;10518585;28;20219;-76
2021/04/15 07:47:01;;;;;;;6.07;5.47;;;6.00;33.90;;;;;;10538433;27;20314;-76
2021/04/15 07:52:33;;;;;;;5.57;5.07;;;6.20;33.90;;;;;;10537325;28;20277;-75
2021/04/15 07:58:10;;;;;;;5.63;5.13;;;6.40;34.50;;;;;;10537484;28;20228;-75
2021/04/15 08:03:54;;;;;;;5.20;4.70;;;6.70;34.30;;;;;;10528238;28;20266;-75
2021/04/15 08:09:16;;;;;;;5.20;4.77;;;6.90;33.70;;;;;;10539254;28;20230;-78
2021/04/15 08:15:01;;;;;;;5.27;4.60;;;7.20;33.60;;;;;;10542217;28;20243;-78
2021/04/15 08:20:24;;;;;;;4.80;4.30;;;7.50;33.30;;;;;;10537063;28;20226;-77
2021/04/15 08:25:37;;;;;;;5.20;4.20;;;7.80;32.80;;;;;;10494947;28;20228;-77
2021/04/15 08:30:51;;;;;;;4.00;3.70;;;8.00;32.40;;;;;;10507572;28;20223;-77
2021/04/15 08:36:12;;;;;;;3.80;3.47;;;8.30;31.80;;;;;;10535766;28;20276;-76
2021/04/15 08:41:23;;;;;;;4.07;3.60;;;8.60;31.70;;;;;;10535710;28;20695;-76
2021/04/15 08:46:31;;;;;;;3.67;3.03;;;8.90;31.30;;;;;;10535649;28;20310;-78
2021/04/15 08:51:59;;;;;;;3.30;2.83;;;9.20;30.80;;;;;;10534051;28;20293;-77
2021/04/15 08:57:14;;;;;;;4.73;3.37;;;9.50;30.00;;;;;;10531567;28;20301;-77
2021/04/15 09:02:24;;;;;;;5.50;3.87;;;9.80;30.10;;;;;;10535844;28;20234;-78
2021/04/15 09:07:36;;;;;;;4.80;3.50;;;10.00;29.20;;;;;;10535293;28;20691;-77
2021/04/15 09:12:58;;;;;;;3.90;3.50;;;10.10;29.10;;;;;;10540190;27;20773;-77
2021/04/15 09:18:06;;;;;;;3.37;2.77;;;10.30;28.50;;;;;;10526336;28;20224;-77
2021/04/15 09:23:34;;;;;;;3.67;2.57;;;10.40;28.60;;;;;;10534454;28;20240;-77
2021/04/15 09:28:40;;;;;;;4.77;2.80;;;10.50;27.50;;;;;;10535671;28;20314;-76
2021/04/15 09:34:14;;;;;;;3.37;2.30;;;10.50;27.70;;;;;;10540090;27;20276;-75
2021/04/15 09:39:44;;;;;;;4.10;2.60;;;10.60;26.70;;;;;;10535502;27;20251;-75
2021/04/15 09:45:06;;;;;;;4.23;2.87;;;10.60;27.20;;;;;;10531506;28;20310;-75
2021/04/15 09:50:20;;;;;;;4.00;3.10;;;10.70;27.40;;;;;;10530113;28;20243;-77
2021/04/15 09:55:57;;;;;;;4.13;2.83;;;10.90;27.00;;;;;;10535025;28;20231;-77
2021/04/15 10:01:04;;;;;;;3.90;3.60;;;11.10;26.10;;;;;;10529731;28;20224;-77
2021/04/15 10:06:18;;;;;;;3.90;3.40;;;11.20;27.20;;;;;;10532811;28;20255;-77
2021/04/15 10:11:31;;;;;;;4.87;3.67;;;11.20;26.60;;;;;;10533849;28;20232;-77
2021/04/15 10:16:43;;;;;;;4.03;2.70;;;11.10;26.50;;;;;;10534760;28;20254;-78
2021/04/15 10:21:54;;;;;;;2.87;2.57;;;11.10;26.60;;;;;;10531114;28;20235;-79
2021/04/15 10:27:38;;;;;;;2.70;2.50;;;11.00;26.20;;;;;;10534636;28;20640;-75
2021/04/15 10:33:15;;;;;;;2.40;2.20;;;11.10;25.90;;;;;;10529929;28;20242;-77
2021/04/15 10:38:51;;;;;;;2.20;2.10;;;11.20;25.70;;;;;;10492275;28;20307;-77
2021/04/15 10:44:25;;;;;;;3.03;2.83;;;11.30;25.40;;;;;;10515140;28;20283;-76
2021/04/15 10:49:37;;;;;;;2.70;2.50;;;11.40;25.50;;;;;;10537824;28;20216;-78
2021/04/15 10:54:43;;;;;;;2.80;2.60;;;11.40;26.10;;;;;;10534429;28;20243;-78
2021/04/15 10:59:48;;;;;;;3.07;2.77;;;11.20;27.00;;;;;;10538060;28;20242;-78
2021/04/15 11:04:53;;;;;;;3.10;2.83;;;11.20;27.10;;;;;;10531516;28;20220;-78
2021/04/15 11:09:57;;;;;;;3.47;3.17;;;11.00;26.90;;;;;;10537727;28;20880;-76
2021/04/15 11:15:10;;;;;;;4.10;3.13;;;10.90;27.30;;;;;;10542589;28;20594;-76
2021/04/15 11:20:22;;;;;;;4.30;3.20;;;10.90;26.90;;;;;;10545090;28;20299;-77
2021/04/15 11:25:28;;;;;;;3.93;3.27;;;10.90;26.50;;;;;;10540207;28;20315;-77
2021/04/15 11:30:37;;;;;;;3.23;2.93;;;11.00;26.90;;;;;;10533661;28;20345;-77
2021/04/15 11:35:46;;;;;;;3.20;2.93;;;11.20;26.80;;;;;;10538116;28;20311;-77
2021/04/15 11:40:50;;;;;;;3.23;2.93;;;11.30;26.60;;;;;;10546556;27;20774;-76
2021/04/15 11:45:55;;;;;;;3.27;2.97;;;11.40;26.10;;;;;;10536154;28;20251;-78
2021/04/15 11:51:14;;;;;;;3.40;3.10;;;11.50;25.90;;;;;;10528740;28;20231;-78
2021/04/15 11:56:28;;;;;;;4.17;3.03;;;11.40;24.70;;;;;;10531496;28;20253;-77
2021/04/15 12:01:32;;;;;;;3.37;3.07;;;11.40;25.50;;;;;;10530484;28;20246;-77
2021/04/15 12:06:39;;;;;;;3.30;2.97;;;11.30;25.70;;;;;;10536467;28;20234;-77
2021/04/15 12:11:57;;;;;;;3.33;3.03;;;11.20;25.40;;;;;;10536141;28;20228;-77
2021/04/15 12:17:07;;;;;;;3.73;3.23;;;11.10;25.00;;;;;;10533852;27;20223;-78
2021/04/15 12:22:18;;;;;;;3.80;3.40;;;11.20;25.70;;;;;;10542096;27;20223;-77
2021/04/15 12:27:24;;;;;;;3.40;3.10;;;11.30;25.10;;;;;;10546965;27;20318;-78
2021/04/15 12:32:37;;;;;;;3.90;3.50;;;11.40;25.90;;;;;;10521511;28;20239;-77
2021/04/15 12:37:42;;;;;;;3.97;3.20;;;11.40;25.40;;;;;;10528035;28;20306;-78
2021/04/15 12:42:54;;;;;;;4.17;3.30;;;11.50;25.90;;;;;;10540164;28;20255;-79
2021/04/15 12:47:58;;;;;;;3.53;3.17;;;11.50;25.60;;;;;;10538906;28;20318;-78
2021/04/15 12:53:04;;;;;;;3.27;2.97;;;11.70;25.70;;;;;;10536616;28;20639;-79
2021/04/15 12:58:12;;;;;;;3.70;3.40;;;11.70;25.30;;;;;;10521840;22;20675;-87
2021/04/15 13:03:26;;;;;;;4.30;3.00;;;11.70;24.40;;;;;;10535416;28;20274;-87
2021/04/15 13:08:42;;;;;;;4.03;2.80;;;11.60;23.30;;;;;;10540822;28;20233;-87
2021/04/15 13:13:47;;;;;;;3.33;3.00;;;11.50;23.90;;;;;;10538057;28;20276;-88
2021/04/15 13:18:49;;;;;;;3.83;2.70;;;11.50;24.60;;;;;;10537743;28;20246;-87
2021/04/15 13:24:46;;;;;;;2.73;2.53;;;11.50;24.60;;;;;;10527485;28;20247;-88
2021/04/15 13:30:31;;;;;;;2.60;2.40;;;11.40;22.80;;;;;;10481269;28;20230;-88
2021/04/15 13:36:19;;;;;;;2.63;2.40;;;11.50;23.40;;;;;;10477488;28;20250;-88
2021/04/15 13:42:10;;;;;;;2.97;2.67;;;11.60;22.70;;;;;;10536581;28;20699;-87
2021/04/15 13:47:57;;;;;;;4.00;2.70;;;11.60;23.60;;;;;;10527435;27;20265;-87
2021/04/15 13:53:54;;;;;;;2.83;2.60;;;11.90;24.10;;;;;;10526639;28;20223;-88
2021/04/15 13:59:50;;;;;;;2.87;2.67;;;11.80;23.00;;;;;;10495337;28;20626;-87
2021/04/15 14:05:38;;;;;;;3.10;2.80;;;11.60;22.40;;;;;;10496133;28;20227;-87
2021/04/15 14:11:42;;;;;;;3.77;3.47;;;11.30;22.70;;;;;;10535733;28;20276;-87
2021/04/15 14:17:21;;;;;;;2.80;2.60;;;11.00;23.60;;;;;;10535378;28;20219;-86
2021/04/15 14:22:57;;;;;;;3.03;2.40;;;10.70;23.40;;;;;;10503713;28;20231;-86
2021/04/15 14:28:10;;;;;;;3.23;2.43;;;10.60;23.70;;;;;;10507551;28;20256;-88
2021/04/15 14:33:40;;;;;;;2.60;2.40;;;10.60;24.40;;;;;;10492949;28;20265;-85
2021/04/15 14:38:48;;;;;;;2.50;2.30;;;10.60;23.20;;;;;;10510941;28;20243;-87
2021/04/15 14:43:53;;;;;;;2.97;2.20;;;10.60;23.40;;;;;;10501751;28;20260;-86
2021/04/15 14:49:09;;;;;;;2.87;2.67;;;10.70;24.00;;;;;;10491884;28;20307;-87
2021/04/15 14:54:25;;;;;;;3.07;2.83;;;10.70;24.10;;;;;;10497563;28;20262;-86
2021/04/15 14:59:29;;;;;;;3.50;2.90;;;10.80;23.40;;;;;;10501513;28;20280;-87
2021/04/15 15:04:35;;;;;;;2.67;2.40;;;10.90;24.10;;;;;;10501079;28;20232;-87
2021/04/15 15:09:42;;;;;;;3.20;2.47;;;11.00;24.30;;;;;;10498035;28;20338;-87
2021/04/15 15:14:50;;;;;;;2.77;2.57;;;11.10;23.90;;;;;;10494735;28;20261;-88
2021/04/15 15:19:54;;;;;;;4.73;2.80;;;11.20;24.50;;;;;;10504108;28;20244;-87
2021/04/15 15:24:58;;;;;;;3.77;2.87;;;11.30;24.40;;;;;;10496962;28;20282;-87
2021/04/15 15:30:08;;;;;;;3.33;3.03;;;11.40;23.00;;;;;;10517422;28;20238;-87
2021/04/15 15:35:25;;;;;;;3.10;2.90;;;11.30;22.60;;;;;;10539650;28;20306;-87
2021/04/15 15:40:48;;;;;;;3.50;3.20;;;11.30;22.20;;;;;;10540135;28;20226;-87
2021/04/15 15:46:34;;;;;;;3.10;2.80;;;11.30;22.50;;;;;;10533708;28;20639;-87
2021/04/15 15:51:42;;;;;;;3.63;3.33;;;11.30;22.70;;;;;;10539881;28;20730;-87
2021/04/15 15:56:48;;;;;;;3.40;3.10;;;11.30;23.60;;;;;;10504617;28;20304;-87
2021/04/15 16:02:05;;;;;;;3.47;3.17;;;11.30;23.60;;;;;;10497354;28;20228;-86
2021/04/15 16:07:18;;;;;;;3.10;2.90;;;11.40;23.10;;;;;;10537025;28;20306;-86
2021/04/15 16:12:32;;;;;;;3.30;3.00;;;11.40;22.90;;;;;;10538514;28;20699;-87
2021/04/15 16:17:34;;;;;;;2.83;2.63;;;11.30;21.80;;;;;;10539588;28;20269;-87
2021/04/15 16:22:37;;;;;;;3.20;2.90;;;11.10;22.90;;;;;;10537913;28;20224;-87
2021/04/15 16:27:41;;;;;;;2.50;2.30;;;11.10;22.90;;;;;;10538196;28;20251;-88
2021/04/15 16:32:49;;;;;;;2.60;2.40;;;11.00;23.30;;;;;;10533552;28;20236;-87
2021/04/15 16:37:55;;;;;;;3.23;2.33;;;11.10;23.70;;;;;;10510141;28;20241;-87
2021/04/15 16:42:58;;;;;;;2.87;2.63;;;11.10;23.30;;;;;;10539359;28;20231;-87
2021/04/15 16:48:07;;;;;;;2.90;2.70;;;11.20;23.60;;;;;;10529026;28;20234;-88
2021/04/15 16:53:10;;;;;;;2.80;2.60;;;11.20;23.70;;;;;;10525123;27;20245;-87
2021/04/15 16:58:19;;;;;;;2.60;2.40;;;11.30;23.60;;;;;;10510981;28;20238;-88
2021/04/15 17:03:31;;;;;;;2.50;2.30;;;11.30;23.40;;;;;;10490195;28;20246;-88
2021/04/15 17:08:34;;;;;;;3.00;2.77;;;11.40;23.30;;;;;;10510658;28;20235;-88
2021/04/15 17:13:40;;;;;;;2.70;2.50;;;11.30;23.20;;;;;;10539915;28;20251;-88
2021/04/15 17:18:44;;;;;;;2.77;2.60;;;11.30;23.20;;;;;;10519678;28;20223;-87
2021/04/15 17:23:48;;;;;;;2.80;2.60;;;11.30;23.00;;;;;;10493766;28;20285;-88
2021/04/15 17:28:55;;;;;;;2.30;2.20;;;11.20;23.10;;;;;;10495411;28;20506;-88
2021/04/15 17:33:59;;;;;;;2.40;2.20;;;11.20;22.90;;;;;;10494433;28;20227;-88
2021/04/15 17:39:04;;;;;;;2.50;2.30;;;11.10;23.10;;;;;;10497358;28;20220;-88
2021/04/15 17:44:20;;;;;;;2.13;2.03;;;11.10;22.90;;;;;;10493219;28;20278;-89
2021/04/15 17:49:39;;;;;;;2.20;2.10;;;11.10;22.80;;;;;;10485184;28;20231;-87
2021/04/15 17:55:35;;;;;;;2.50;2.30;;;11.10;22.40;;;;;;10479252;28;20277;-86
2021/04/15 18:26:47;;;;;;;2.23;2.03;;;10.70;22.40;;;;;;10655430;22;20698;-69
2021/04/15 18:31:49;;;;;;;2.23;2.03;;;10.60;23.10;;;;;;10581490;27;20301;-69
2021/04/15 18:36:52;;;;;;;2.23;2.00;;;10.60;23.20;;;;;;10570996;28;20655;-69
2021/04/15 18:42:09;;;;;;;2.23;2.13;;;10.60;23.20;;;;;;10623186;27;20297;-68
2021/04/15 18:47:11;;;;;;;2.40;2.20;;;10.50;23.20;;;;;;10619907;27;20217;-68
2021/04/15 18:52:15;;;;;;;2.30;2.10;;;10.50;23.30;;;;;;10623531;27;20222;-68
2021/04/15 18:57:18;;;;;;;3.10;2.07;;;10.40;23.30;;;;;;10621229;27;20226;-68
2021/04/15 19:02:21;;;;;;;2.40;2.20;;;10.40;23.40;;;;;;10620981;27;20249;-68
2021/04/15 19:07:23;;;;;;;2.53;2.33;;;10.30;23.50;;;;;;10619207;27;20753;-70
2021/04/15 19:12:26;;;;;;;2.67;2.40;;;10.30;23.70;;;;;;10618595;27;20226;-70
2021/04/15 19:17:29;;;;;;;2.33;2.23;;;10.20;23.60;;;;;;10620641;27;20218;-70
2021/04/15 19:22:31;;;;;;;2.70;2.50;;;10.20;23.80;;;;;;10616902;27;20888;-70
2021/04/15 19:27:36;;;;;;;2.60;2.50;;;10.10;23.80;;;;;;10618303;27;20331;-70
2021/04/15 19:32:38;;;;;;;3.47;3.07;;;10.00;23.80;;;;;;10619682;27;20252;-70
2021/04/15 19:37:41;;;;;;;2.83;2.63;;;10.00;24.00;;;;;;10621411;27;20275;-70
2021/04/15 19:42:44;;;;;;;2.67;2.47;;;9.90;24.70;;;;;;10620350;27;20309;-70
2021/04/15 19:47:47;;;;;;;2.17;2.00;;;9.90;24.70;;;;;;10619155;27;20242;-70
2021/04/15 19:52:51;;;;;;;2.40;2.20;;;9.90;24.60;;;;;;10618510;27;20309;-70
2021/04/15 19:57:54;;;;;;;2.30;2.10;;;9.80;24.50;;;;;;10618617;27;20344;-70
2021/04/15 20:02:57;;;;;;;2.07;1.90;;;9.80;24.20;;;;;;10609561;27;20313;-69
2021/04/15 20:08:03;;;;;;;2.37;1.77;;;9.70;24.20;;;;;;10568487;28;20223;-69
2021/04/15 20:13:07;;;;;;;2.10;1.90;;;9.60;24.20;;;;;;10568159;27;20390;-69
2021/04/15 20:18:10;;;;;;;1.93;1.83;;;9.50;24.10;;;;;;10566927;28;20307;-69
2021/04/15 20:23:13;;;;;;;1.90;1.80;;;9.50;24.30;;;;;;10573981;27;20297;-69
2021/04/15 20:28:17;;;;;;;2.40;1.80;;;9.40;24.40;;;;;;10613293;27;20753;-70
2021/04/15 20:33:22;;;;;;;1.90;1.60;;;9.40;24.30;;;;;;10639705;27;20242;-69
2021/04/15 20:38:27;;;;;;;4.43;1.53;;;9.30;24.30;;;;;;10635136;27;20232;-69
2021/04/15 20:43:31;;;;;;;1.77;1.63;;;9.20;24.40;;;;;;10644126;27;20286;-69
2021/04/15 20:48:34;;;;;;;8.40;7.70;;;9.20;24.40;;;;;;10627890;27;20245;-69
2021/04/15 20:53:36;;;;;;;2.50;2.40;;;9.10;24.50;;;;;;10614816;27;20309;-69
2021/04/15 20:58:39;;;;;;;2.00;1.90;;;9.10;24.50;;;;;;10617745;27;20249;-69
2021/04/15 21:03:42;;;;;;;1.70;1.60;;;9.00;24.50;;;;;;10618848;27;20245;-73
2021/04/15 21:08:52;;;;;;;1.60;1.50;;;9.00;24.60;;;;;;10489881;27;20539;-73
2021/04/15 21:13:54;;;;;;;2.00;1.80;;;8.90;24.60;;;;;;10490768;28;20302;-72
2021/04/15 21:18:57;;;;;;;2.03;1.53;;;8.90;24.70;;;;;;10528488;27;20242;-70
2021/04/15 21:24:00;;;;;;;2.73;1.63;;;8.90;24.80;;;;;;10500296;27;20231;-71
2021/04/15 21:29:03;;;;;;;1.80;1.33;;;8.90;24.90;;;;;;10494225;28;20295;-72
2021/04/15 21:34:05;;;;;;;1.40;1.30;;;8.80;25.00;;;;;;10462545;28;20278;-71
2021/04/15 21:39:11;;;;;;;1.60;1.50;;;8.80;25.00;;;;;;10485709;28;20228;-72
2021/04/15 21:44:13;;;;;;;1.40;1.30;;;8.80;25.00;;;;;;10485124;28;20231;-72
2021/04/15 21:49:16;;;;;;;1.40;1.30;;;8.70;25.00;;;;;;10485086;28;20664;-72
2021/04/15 21:54:19;;;;;;;1.40;1.30;;;8.70;25.00;;;;;;10493708;28;20452;-72
2021/04/15 21:59:22;;;;;;;2.40;1.67;;;8.60;25.00;;;;;;10485107;28;20252;-72
2021/04/15 22:04:24;;;;;;;2.37;1.53;;;8.60;25.00;;;;;;10484477;28;20315;-72
2021/04/15 22:09:36;;;;;;;1.50;1.33;;;8.50;25.00;;;;;;10475914;28;20740;-71
2021/04/15 22:14:42;;;;;;;1.20;1.10;;;8.40;25.00;;;;;;10451262;28;20252;-72
2021/04/15 22:19:44;;;;;;;1.30;1.20;;;8.40;25.10;;;;;;10455879;28;20240;-74
2021/04/15 22:24:49;;;;;;;2.40;1.50;;;8.30;25.00;;;;;;10459615;28;20286;-73
2021/04/15 22:29:52;;;;;;;1.80;1.67;;;8.20;25.10;;;;;;10456387;28;20252;-74
2021/04/15 22:34:55;;;;;;;1.90;1.43;;;8.20;25.20;;;;;;10455280;28;20290;-74
2021/04/15 22:39:58;;;;;;;2.60;2.00;;;8.00;25.10;;;;;;10463438;28;20275;-73
2021/04/15 22:45:00;;;;;;;2.87;2.17;;;8.00;25.30;;;;;;10444420;28;20232;-74
2021/04/15 22:50:06;;;;;;;2.50;2.20;;;7.90;25.30;;;;;;10448658;28;20327;-73
2021/04/15 22:55:15;;;;;;;2.33;2.13;;;7.80;25.40;;;;;;10456993;28;20577;-74
2021/04/15 23:00:25;;;;;;;2.20;2.00;;;7.70;25.50;;;;;;10435691;28;20240;-74
2021/04/15 23:05:27;;;;;;;3.10;2.30;;;7.70;25.60;;;;;;10458087;28;20698;-75
2021/04/15 23:10:32;;;;;;;2.67;2.47;;;7.60;25.40;;;;;;10459234;28;20245;-74
2021/04/15 23:15:35;;;;;;;2.20;1.97;;;7.60;25.60;;;;;;10446169;28;20308;-75
2021/04/15 23:20:40;;;;;;;1.57;1.40;;;7.50;25.60;;;;;;10439040;28;20229;-75
2021/04/15 23:25:43;;;;;;;1.50;1.40;;;7.40;25.70;;;;;;10444604;28;20225;-74
2021/04/15 23:30:46;;;;;;;1.50;1.40;;;7.40;25.80;;;;;;10433562;28;20224;-75
2021/04/15 23:35:48;;;;;;;1.40;1.30;;;7.30;25.80;;;;;;10452256;28;20229;-75
2021/04/15 23:40:52;;;;;;;1.37;1.37;;;7.20;25.80;;;;;;10457102;28;20225;-74
2021/04/15 23:45:54;;;;;;;1.40;1.30;;;7.10;25.90;;;;;;10429443;28;20780;-73
2021/04/15 23:50:59;;;;;;;1.80;1.70;;;7.10;25.90;;;;;;10452723;28;20835;-74
2021/04/15 23:56:02;;;;;;;1.70;1.60;;;7.00;26.00;;;;;;10468701;28;20224;-75
